RJSH(METAR)
05/30 17:00
METAR RJSH 300800Z 08006KT 9999 FEW030 23/09 Q1017 RMK 1CU030 A3006=
戻る
トップページへ戻る
IMOC Co,.Ltd.